createdAt,value
2023-05-21T00:01:26.911Z,99.90
2023-05-21T00:03:54.257Z,99.90
2023-05-21T00:06:23.300Z,99.90
2023-05-21T00:08:50.671Z,99.90
2023-05-21T00:11:18.152Z,99.90
2023-05-21T00:13:45.348Z,99.90
2023-05-21T00:16:12.716Z,99.90
2023-05-21T00:18:39.939Z,99.90
2023-05-21T00:21:07.705Z,99.90
2023-05-21T00:23:36.630Z,99.90
2023-05-21T00:26:04.198Z,99.90
2023-05-21T00:28:31.257Z,99.90
2023-05-21T00:30:58.629Z,99.90
2023-05-21T00:33:29.313Z,99.90
2023-05-21T00:35:57.398Z,99.90
2023-05-21T00:38:27.877Z,99.90
2023-05-21T00:40:55.261Z,99.90
2023-05-21T00:43:26.172Z,99.90
2023-05-21T00:45:53.923Z,99.90
2023-05-21T00:48:21.257Z,99.90
2023-05-21T00:50:49.526Z,99.90
2023-05-21T00:53:19.325Z,99.90
2023-05-21T00:55:48.203Z,99.90
2023-05-21T00:58:17.831Z,99.90
2023-05-21T01:00:45.884Z,99.90
2023-05-21T01:03:13.840Z,99.90
2023-05-21T01:05:45.117Z,99.90
2023-05-21T01:08:12.918Z,99.90
2023-05-21T01:10:40.460Z,99.90
2023-05-21T01:13:08.309Z,99.90
2023-05-21T01:15:38.014Z,99.90
2023-05-21T01:18:06.177Z,99.90
2023-05-21T01:20:33.797Z,99.90
2023-05-21T01:23:02.068Z,99.90
2023-05-21T01:25:30.298Z,99.90
2023-05-21T01:27:57.974Z,99.90
2023-05-21T01:30:25.902Z,99.90
2023-05-21T01:32:53.069Z,99.90
2023-05-21T01:35:31.167Z,99.90
2023-05-21T01:38:26.392Z,99.90
2023-05-21T01:40:55.731Z,99.90
2023-05-21T01:43:23.624Z,99.90
2023-05-21T01:45:55.364Z,99.90
2023-05-21T01:48:25.006Z,99.90
2023-05-21T01:50:55.270Z,99.90
2023-05-21T01:53:22.669Z,99.90
2023-05-21T01:55:50.219Z,99.90
2023-05-21T01:58:18.497Z,99.90
2023-05-21T02:00:46.643Z,99.90
2023-05-21T02:03:17.699Z,99.90
2023-05-21T02:05:45.376Z,99.90
2023-05-21T02:08:12.942Z,99.90
2023-05-21T02:10:40.670Z,99.90
2023-05-21T02:13:07.803Z,99.90
2023-05-21T02:15:35.473Z,99.90
2023-05-21T02:18:03.991Z,99.90
2023-05-21T02:20:31.954Z,99.90
2023-05-21T02:22:58.992Z,99.90
2023-05-21T02:25:26.368Z,99.90
2023-05-21T02:27:54.098Z,99.90
2023-05-21T02:30:21.663Z,99.90
2023-05-21T02:32:49.975Z,99.90
2023-05-21T02:35:17.457Z,99.90
2023-05-21T02:37:44.686Z,99.90
2023-05-21T02:40:12.919Z,99.90
2023-05-21T02:42:41.469Z,99.90
2023-05-21T02:45:12.919Z,99.90
2023-05-21T02:47:42.301Z,99.90
2023-05-21T02:50:09.906Z,99.90
2023-05-21T02:52:44.194Z,99.90
2023-05-21T02:55:11.790Z,99.90
2023-05-21T02:57:38.830Z,99.90
2023-05-21T03:00:08.290Z,99.90
2023-05-21T03:02:36.243Z,99.90
2023-05-21T03:05:03.923Z,99.90
2023-05-21T03:07:31.707Z,99.90
2023-05-21T03:09:59.408Z,99.90
2023-05-21T03:12:26.484Z,99.90
2023-05-21T03:14:54.132Z,99.90
2023-05-21T03:17:22.308Z,99.90
2023-05-21T03:19:49.809Z,99.90
2023-05-21T03:22:17.316Z,99.90
2023-05-21T03:24:45.372Z,99.90
2023-05-21T03:27:14.157Z,99.90
2023-05-21T03:29:43.251Z,99.90
2023-05-21T03:32:11.502Z,99.90
2023-05-21T03:34:38.977Z,99.90
2023-05-21T03:37:06.592Z,99.90
2023-05-21T03:39:34.838Z,99.90
2023-05-21T03:42:02.308Z,99.90
2023-05-21T03:44:52.156Z,99.90
2023-05-21T03:47:37.786Z,99.90
2023-05-21T03:50:09.448Z,99.90
2023-05-21T03:52:37.183Z,99.90
2023-05-21T03:55:06.157Z,99.90
2023-05-21T03:57:33.389Z,99.90
2023-05-21T04:00:00.849Z,99.90
2023-05-21T04:02:28.178Z,99.90
2023-05-21T04:04:56.034Z,99.90
2023-05-21T04:07:24.445Z,99.90
2023-05-21T04:09:51.851Z,99.90
2023-05-21T04:12:20.341Z,99.90
2023-05-21T04:14:48.252Z,99.90
2023-05-21T04:17:15.339Z,99.90
2023-05-21T04:19:42.759Z,99.90
2023-05-21T04:22:12.115Z,99.90
2023-05-21T04:24:39.875Z,99.90
2023-05-21T04:27:14.205Z,99.90
2023-05-21T04:29:42.789Z,99.90
2023-05-21T04:32:10.082Z,99.90
2023-05-21T04:34:37.897Z,99.90
2023-05-21T04:37:05.115Z,99.90
2023-05-21T04:39:32.659Z,99.90
2023-05-21T04:41:59.795Z,99.90
2023-05-21T04:44:27.154Z,99.90
2023-05-21T04:46:55.146Z,99.90
2023-05-21T04:49:22.711Z,99.90
2023-05-21T04:51:49.878Z,99.90
2023-05-21T04:54:17.324Z,99.90
2023-05-21T04:56:44.768Z,99.90
2023-05-21T04:59:12.187Z,99.90
2023-05-21T05:01:39.291Z,99.90
2023-05-21T05:04:07.002Z,99.90
2023-05-21T05:06:34.163Z,99.90
2023-05-21T05:09:01.560Z,99.90
2023-05-21T05:11:28.742Z,99.90
2023-05-21T05:13:56.926Z,99.90
2023-05-21T05:16:27.971Z,99.90
2023-05-21T05:18:57.543Z,99.90
2023-05-21T05:21:25.041Z,99.90
2023-05-21T05:23:52.470Z,99.90
2023-05-21T05:26:23.560Z,99.90
2023-05-21T05:28:50.993Z,99.90
2023-05-21T05:31:18.922Z,99.90
2023-05-21T05:33:46.969Z,99.90
2023-05-21T05:36:14.414Z,99.90
2023-05-21T05:38:41.755Z,99.90
2023-05-21T05:41:09.057Z,99.90
2023-05-21T05:43:36.778Z,99.90
2023-05-21T05:46:04.012Z,99.90
2023-05-21T05:48:31.462Z,99.90
2023-05-21T05:50:59.262Z,99.90
2023-05-21T05:53:27.207Z,99.90
2023-05-21T05:55:54.634Z,99.90
2023-05-21T05:58:22.090Z,99.90
2023-05-21T06:01:13.628Z,99.90
2023-05-21T06:03:41.642Z,99.90
2023-05-21T06:06:14.976Z,99.90
2023-05-21T06:08:42.851Z,99.90
2023-05-21T06:11:10.958Z,99.90
2023-05-21T06:13:38.750Z,99.90
2023-05-21T06:16:10.037Z,99.90
2023-05-21T06:18:38.459Z,99.90
2023-05-21T06:21:05.670Z,99.90
2023-05-21T06:23:33.183Z,99.90
2023-05-21T06:26:00.814Z,99.90
2023-05-21T06:28:28.318Z,99.90
2023-05-21T06:30:58.313Z,99.90
2023-05-21T06:33:27.695Z,99.90
2023-05-21T06:35:55.943Z,99.90
2023-05-21T06:38:24.261Z,99.90
2023-05-21T06:40:51.288Z,99.90
2023-05-21T06:43:34.878Z,99.90
2023-05-21T06:46:20.434Z,99.90
2023-05-21T06:48:47.961Z,99.90
2023-05-21T06:51:15.298Z,99.90
2023-05-21T06:53:43.189Z,99.50
2023-05-21T06:56:10.497Z,98.40
2023-05-21T06:58:41.719Z,98.60
2023-05-21T07:01:08.914Z,98.20
2023-05-21T07:03:36.787Z,97.60
2023-05-21T07:06:04.092Z,96.90
2023-05-21T07:08:31.652Z,95.60
2023-05-21T07:11:00.102Z,95.40
2023-05-21T07:13:27.799Z,94.80
2023-05-21T07:15:55.692Z,94.50
2023-05-21T07:18:23.047Z,93.90
2023-05-21T07:20:50.542Z,92.60
2023-05-21T07:23:17.976Z,91.80
2023-05-21T07:25:46.349Z,91.50
2023-05-21T07:28:14.804Z,91.60
2023-05-21T07:30:42.037Z,90.40
2023-05-21T07:33:14.362Z,90.40
2023-05-21T07:35:41.620Z,90.30
2023-05-21T07:38:09.124Z,90.20
2023-05-21T07:40:36.397Z,87.90
2023-05-21T07:43:04.580Z,85.80
2023-05-21T07:45:33.890Z,86.10
2023-05-21T07:48:01.503Z,79.60
2023-05-21T07:50:31.868Z,79.00
2023-05-21T07:52:59.347Z,77.40
2023-05-21T07:55:26.457Z,77.80
2023-05-21T07:57:55.200Z,77.00
2023-05-21T08:00:29.697Z,75.40
2023-05-21T08:02:58.441Z,74.20
2023-05-21T08:05:26.532Z,72.80
2023-05-21T08:07:53.992Z,72.50
2023-05-21T08:10:21.859Z,71.40
2023-05-21T08:12:51.167Z,70.90
2023-05-21T08:15:19.022Z,68.60
2023-05-21T08:17:46.742Z,68.30
2023-05-21T08:20:15.210Z,68.30
2023-05-21T08:22:44.636Z,67.90
2023-05-21T08:25:12.239Z,66.30
2023-05-21T08:27:39.833Z,66.80
2023-05-21T08:30:07.932Z,67.20
2023-05-21T08:32:36.259Z,65.70
2023-05-21T08:35:04.033Z,64.60
2023-05-21T08:38:03.891Z,64.40
2023-05-21T08:40:41.574Z,63.10
2023-05-21T08:43:13.904Z,63.60
2023-05-21T08:45:57.298Z,62.80
2023-05-21T08:48:28.161Z,60.00
2023-05-21T08:50:55.693Z,60.70
2023-05-21T08:53:33.495Z,60.70
2023-05-21T08:56:01.859Z,60.30
2023-05-21T08:58:45.263Z,59.30
2023-05-21T09:01:13.194Z,59.20
2023-05-21T09:03:46.226Z,57.20
2023-05-21T09:06:16.776Z,57.40
2023-05-21T09:08:49.919Z,57.60
2023-05-21T09:11:23.278Z,57.50
2023-05-21T09:13:57.918Z,57.50
2023-05-21T09:16:32.716Z,58.20
2023-05-21T09:19:03.021Z,58.50
2023-05-21T09:21:34.133Z,57.50
2023-05-21T09:24:11.183Z,57.50
2023-05-21T09:26:42.739Z,56.60
2023-05-21T09:29:10.559Z,56.80
2023-05-21T09:31:46.564Z,57.20
2023-05-21T09:34:14.999Z,55.60
2023-05-21T09:36:47.158Z,53.40
2023-05-21T09:39:29.894Z,54.20
2023-05-21T09:42:00.478Z,54.90
2023-05-21T09:44:28.083Z,53.60
2023-05-21T09:46:59.573Z,53.30
2023-05-21T09:49:28.096Z,50.80
2023-05-21T09:51:59.974Z,50.50
2023-05-21T09:54:33.339Z,50.90
2023-05-21T09:57:02.654Z,50.30
2023-05-21T09:59:40.052Z,50.30
2023-05-21T10:02:37.970Z,50.40
2023-05-21T10:05:10.390Z,49.10
2023-05-21T10:07:38.394Z,50.80
2023-05-21T10:10:09.234Z,49.70
2023-05-21T10:12:36.860Z,49.50
2023-05-21T10:15:08.215Z,49.70
2023-05-21T10:17:36.243Z,50.10
2023-05-21T10:20:05.238Z,49.60
2023-05-21T10:22:33.501Z,49.30
2023-05-21T10:25:03.656Z,50.00
2023-05-21T10:27:32.793Z,49.20
2023-05-21T10:30:00.697Z,48.70
2023-05-21T10:32:28.244Z,48.70
2023-05-21T10:34:58.591Z,47.20
2023-05-21T10:37:27.736Z,45.90
2023-05-21T10:39:56.294Z,45.20
2023-05-21T10:42:32.393Z,45.00
2023-05-21T10:45:32.670Z,45.50
2023-05-21T10:48:26.185Z,45.20
2023-05-21T10:51:50.733Z,45.10
2023-05-21T10:54:42.322Z,45.30
2023-05-21T10:57:45.918Z,44.30
2023-05-21T11:00:16.847Z,44.80
2023-05-21T11:02:45.897Z,45.90
2023-05-21T11:05:13.214Z,46.40
2023-05-21T11:07:56.842Z,46.40
2023-05-21T11:10:35.691Z,46.60
2023-05-21T11:13:16.828Z,47.80
2023-05-21T11:16:01.447Z,47.30
2023-05-21T11:18:38.035Z,47.50
2023-05-21T11:21:06.316Z,47.60
2023-05-21T11:23:52.470Z,46.60
2023-05-21T11:26:27.187Z,46.90
2023-05-21T11:29:03.467Z,47.60
2023-05-21T11:31:38.409Z,48.40
2023-05-21T11:34:19.143Z,47.50
2023-05-21T11:36:50.011Z,48.20
2023-05-21T11:39:22.313Z,48.70
2023-05-21T11:42:03.117Z,48.50
2023-05-21T11:44:44.468Z,48.10
2023-05-21T11:47:15.066Z,47.80
2023-05-21T11:49:42.794Z,48.20
2023-05-21T11:52:11.825Z,48.10
2023-05-21T11:54:48.649Z,47.40
2023-05-21T11:57:17.396Z,47.90
2023-05-21T11:59:51.348Z,47.40
2023-05-21T12:02:22.718Z,46.10
2023-05-21T12:04:51.591Z,45.50
2023-05-21T12:07:20.304Z,45.70
2023-05-21T12:09:51.993Z,46.00
2023-05-21T12:12:25.210Z,45.90
2023-05-21T12:14:55.337Z,46.30
2023-05-21T12:17:24.312Z,45.90
2023-05-21T12:19:53.692Z,46.40
2023-05-21T12:22:21.451Z,44.50
2023-05-21T12:24:48.965Z,44.90
2023-05-21T12:27:16.908Z,45.20
2023-05-21T12:29:46.673Z,45.40
2023-05-21T12:32:16.234Z,44.70
2023-05-21T12:34:44.673Z,43.40
2023-05-21T12:37:27.778Z,42.70
2023-05-21T12:39:57.924Z,43.80
2023-05-21T12:42:27.353Z,43.60
2023-05-21T12:44:54.910Z,43.30
2023-05-21T12:47:26.684Z,43.20
2023-05-21T12:49:58.083Z,39.60
2023-05-21T12:52:25.821Z,40.10
2023-05-21T12:54:56.347Z,39.80
2023-05-21T12:57:34.778Z,39.50
2023-05-21T13:00:04.446Z,39.40
2023-05-21T13:02:38.806Z,38.70
2023-05-21T13:05:08.524Z,37.80
2023-05-21T13:07:39.607Z,37.90
2023-05-21T13:10:07.759Z,37.90
2023-05-21T13:12:35.838Z,37.00
2023-05-21T13:15:05.833Z,37.60
2023-05-21T13:17:33.012Z,36.20
2023-05-21T13:20:18.236Z,35.80
2023-05-21T13:22:53.089Z,36.00
2023-05-21T13:25:24.641Z,35.50
2023-05-21T13:27:53.309Z,35.50
2023-05-21T13:30:21.924Z,36.20
2023-05-21T13:32:49.353Z,34.90
2023-05-21T13:35:17.287Z,35.10
2023-05-21T13:37:45.232Z,34.20
2023-05-21T13:40:17.383Z,33.30
2023-05-21T13:42:46.854Z,33.70
2023-05-21T13:45:16.493Z,33.80
2023-05-21T13:47:44.745Z,33.50
2023-05-21T13:50:13.036Z,34.40
2023-05-21T13:52:40.504Z,33.80
2023-05-21T13:55:08.389Z,33.40
2023-05-21T13:57:35.522Z,33.90
2023-05-21T14:00:04.720Z,34.40
2023-05-21T14:02:35.083Z,34.40
2023-05-21T14:05:02.651Z,34.20
2023-05-21T14:07:29.758Z,34.50
2023-05-21T14:09:57.448Z,34.00
2023-05-21T14:12:24.485Z,33.80
2023-05-21T14:14:52.014Z,33.90
2023-05-21T14:17:19.184Z,34.20
2023-05-21T14:19:48.056Z,33.70
2023-05-21T14:22:15.168Z,33.40
2023-05-21T14:24:42.885Z,33.50
2023-05-21T14:27:12.594Z,33.30
2023-05-21T14:29:41.337Z,33.40
2023-05-21T14:32:08.485Z,34.30
2023-05-21T14:34:35.872Z,34.20
2023-05-21T14:37:03.209Z,33.90
2023-05-21T14:39:31.110Z,34.30
2023-05-21T14:41:58.205Z,33.80
2023-05-21T14:44:25.541Z,34.30
2023-05-21T14:46:52.738Z,34.60
2023-05-21T14:49:20.165Z,35.00
2023-05-21T14:51:47.679Z,35.20
2023-05-21T14:54:15.316Z,36.00
2023-05-21T14:56:42.406Z,35.20
2023-05-21T14:59:11.424Z,35.50
2023-05-21T15:01:39.405Z,36.10
2023-05-21T15:04:07.895Z,35.50
2023-05-21T15:06:35.320Z,37.00
2023-05-21T15:09:02.889Z,36.80
2023-05-21T15:11:29.967Z,36.20
2023-05-21T15:13:57.559Z,36.30
2023-05-21T15:16:24.710Z,36.00
2023-05-21T15:18:52.115Z,35.70
2023-05-21T15:21:19.845Z,36.00
2023-05-21T15:23:47.294Z,36.20
2023-05-21T15:26:14.326Z,36.00
2023-05-21T15:28:41.839Z,36.10
2023-05-21T15:31:09.028Z,36.60
2023-05-21T15:33:37.015Z,36.50
2023-05-21T15:36:04.266Z,37.20
2023-05-21T15:38:32.807Z,36.90
2023-05-21T15:41:00.014Z,36.60
2023-05-21T15:43:27.351Z,36.60
2023-05-21T15:45:54.400Z,36.40
2023-05-21T15:48:23.061Z,36.60
2023-05-21T15:50:50.293Z,36.90
2023-05-21T15:53:17.653Z,36.90
2023-05-21T15:55:44.894Z,37.00
2023-05-21T15:58:12.262Z,36.90
2023-05-21T16:00:39.559Z,36.90
2023-05-21T16:03:07.119Z,36.80
2023-05-21T16:05:34.619Z,37.10
2023-05-21T16:08:02.152Z,37.90
2023-05-21T16:10:29.300Z,38.20
2023-05-21T16:12:56.929Z,38.00
2023-05-21T16:15:24.027Z,38.20
2023-05-21T16:17:51.471Z,38.00
2023-05-21T16:20:18.864Z,37.90
2023-05-21T16:22:46.574Z,37.30
2023-05-21T16:25:13.640Z,37.00
2023-05-21T16:27:41.100Z,37.50
2023-05-21T16:30:08.693Z,38.10
2023-05-21T16:32:36.223Z,37.20
2023-05-21T16:35:03.749Z,37.00
2023-05-21T16:37:31.124Z,37.20
2023-05-21T16:39:58.195Z,38.10
2023-05-21T16:42:25.642Z,37.30
2023-05-21T16:44:52.732Z,37.60
2023-05-21T16:47:20.207Z,37.50
2023-05-21T16:49:47.321Z,38.00
2023-05-21T16:52:14.761Z,37.60
2023-05-21T16:54:44.061Z,37.50
2023-05-21T16:57:13.106Z,37.60
2023-05-21T16:59:40.173Z,37.80
2023-05-21T17:02:16.558Z,37.60
2023-05-21T17:05:04.920Z,37.90
2023-05-21T17:07:32.334Z,37.80
2023-05-21T17:09:59.358Z,37.80
2023-05-21T17:12:26.750Z,38.30
2023-05-21T17:14:54.013Z,38.10
2023-05-21T17:17:21.379Z,38.10
2023-05-21T17:19:48.405Z,38.00
2023-05-21T17:22:15.750Z,38.20
2023-05-21T17:24:43.001Z,38.50
2023-05-21T17:27:10.989Z,38.70
2023-05-21T17:29:38.293Z,39.20
2023-05-21T17:32:06.257Z,39.20
2023-05-21T17:34:33.374Z,39.90
2023-05-21T17:37:00.723Z,40.20
2023-05-21T17:39:27.840Z,39.90
2023-05-21T17:41:56.373Z,40.40
2023-05-21T17:44:23.585Z,40.50
2023-05-21T17:46:52.045Z,40.60
2023-05-21T17:49:19.408Z,41.10
2023-05-21T17:51:47.955Z,41.40
2023-05-21T17:54:15.194Z,41.70
2023-05-21T17:56:44.211Z,41.80
2023-05-21T17:59:14.215Z,42.20
2023-05-21T18:01:41.732Z,42.50
2023-05-21T18:04:10.874Z,42.70
2023-05-21T18:06:38.981Z,43.50
2023-05-21T18:09:07.996Z,43.50
2023-05-21T18:11:35.546Z,43.70
2023-05-21T18:14:04.023Z,44.10
2023-05-21T18:16:31.733Z,44.40
2023-05-21T18:19:02.044Z,44.80
2023-05-21T18:21:29.662Z,45.20
2023-05-21T18:23:56.751Z,45.40
2023-05-21T18:26:25.112Z,45.70
2023-05-21T18:28:52.152Z,45.90
2023-05-21T18:31:20.265Z,46.20
2023-05-21T18:33:47.433Z,46.50
2023-05-21T18:36:14.870Z,46.80
2023-05-21T18:38:41.897Z,47.10
2023-05-21T18:41:09.480Z,47.50
2023-05-21T18:43:36.988Z,47.90
2023-05-21T18:46:04.676Z,48.10
2023-05-21T18:48:31.840Z,48.40
2023-05-21T18:50:59.229Z,48.60
2023-05-21T18:53:26.313Z,49.50
2023-05-21T18:55:53.652Z,49.30
2023-05-21T18:58:20.952Z,49.70
2023-05-21T19:00:48.277Z,50.00
2023-05-21T19:03:16.265Z,50.40
2023-05-21T19:05:43.626Z,50.70
2023-05-21T19:08:10.974Z,51.10
2023-05-21T19:10:39.349Z,51.30
2023-05-21T19:13:06.703Z,51.60
2023-05-21T19:15:34.364Z,51.80
2023-05-21T19:18:03.531Z,52.10
2023-05-21T19:20:31.132Z,52.60
2023-05-21T19:22:58.494Z,52.90
2023-05-21T19:25:26.007Z,53.20
2023-05-21T19:27:53.176Z,53.40
2023-05-21T19:30:20.683Z,54.00
2023-05-21T19:32:48.097Z,54.30
2023-05-21T19:35:16.544Z,54.30
2023-05-21T19:37:43.786Z,54.40
2023-05-21T19:40:11.559Z,55.10
2023-05-21T19:42:39.889Z,55.60
2023-05-21T19:45:09.674Z,55.60
2023-05-21T19:47:36.938Z,56.40
2023-05-21T19:50:04.804Z,56.60
2023-05-21T19:52:32.053Z,56.60
2023-05-21T19:55:04.698Z,56.90
2023-05-21T19:57:34.890Z,57.00
2023-05-21T20:00:02.398Z,57.30
2023-05-21T20:02:40.765Z,57.70
2023-05-21T20:05:09.313Z,57.80
2023-05-21T20:07:36.376Z,57.90
2023-05-21T20:10:04.317Z,58.10
2023-05-21T20:12:31.410Z,58.60
2023-05-21T20:15:00.202Z,58.60
2023-05-21T20:17:28.731Z,58.80
2023-05-21T20:19:57.399Z,59.50
2023-05-21T20:22:24.479Z,59.30
2023-05-21T20:24:51.876Z,59.60
2023-05-21T20:27:19.472Z,60.50
2023-05-21T20:29:47.165Z,61.90
2023-05-21T20:32:14.209Z,62.70
2023-05-21T20:34:54.223Z,63.10
2023-05-21T20:37:28.755Z,63.90
2023-05-21T20:39:58.089Z,64.70
2023-05-21T20:42:28.481Z,65.40
2023-05-21T20:44:58.871Z,65.60
2023-05-21T20:47:29.949Z,66.10
2023-05-21T20:50:02.800Z,66.00
2023-05-21T20:52:29.950Z,66.50
2023-05-21T20:55:01.065Z,66.60
2023-05-21T20:57:28.697Z,66.40
2023-05-21T20:59:56.279Z,66.60
2023-05-21T21:02:23.606Z,66.70
2023-05-21T21:04:51.041Z,67.40
2023-05-21T21:07:18.640Z,67.40
2023-05-21T21:09:47.073Z,67.50
2023-05-21T21:12:25.437Z,67.60
2023-05-21T21:14:54.491Z,68.20
2023-05-21T21:17:21.718Z,68.80
2023-05-21T21:19:49.141Z,69.10
2023-05-21T21:22:16.697Z,69.70
2023-05-21T21:24:44.526Z,70.30
2023-05-21T21:27:11.642Z,71.40
2023-05-21T21:29:39.071Z,72.90
2023-05-21T21:32:06.687Z,74.00
2023-05-21T21:34:34.058Z,75.40
2023-05-21T21:37:01.203Z,77.30
2023-05-21T21:39:28.590Z,79.40
2023-05-21T21:41:55.779Z,82.00
2023-05-21T21:44:23.149Z,85.00
2023-05-21T21:46:50.418Z,88.10
2023-05-21T21:49:17.802Z,88.50
2023-05-21T21:51:45.332Z,89.50
2023-05-21T21:54:12.790Z,89.80
2023-05-21T21:56:39.977Z,90.50
2023-05-21T21:59:07.417Z,90.90
2023-05-21T22:01:35.749Z,90.90
2023-05-21T22:04:03.218Z,91.30
2023-05-21T22:06:31.341Z,92.10
2023-05-21T22:08:59.101Z,92.50
2023-05-21T22:11:28.454Z,93.20
2023-05-21T22:13:56.152Z,93.90
2023-05-21T22:16:24.929Z,94.30
2023-05-21T22:18:54.244Z,94.80
2023-05-21T22:21:21.760Z,94.90
2023-05-21T22:23:49.088Z,95.20
2023-05-21T22:26:16.196Z,95.40
2023-05-21T22:28:43.661Z,95.80
2023-05-21T22:31:11.088Z,96.00
2023-05-21T22:33:39.302Z,96.20
2023-05-21T22:36:06.666Z,96.40
2023-05-21T22:38:34.349Z,96.80
2023-05-21T22:41:01.506Z,97.60
2023-05-21T22:43:29.043Z,98.00
2023-05-21T22:45:56.109Z,98.40
2023-05-21T22:48:23.544Z,99.20
2023-05-21T22:50:53.321Z,99.30
2023-05-21T22:53:20.986Z,99.90
2023-05-21T22:55:48.074Z,99.90
2023-05-21T22:58:15.585Z,99.90
2023-05-21T23:00:43.116Z,99.90
2023-05-21T23:03:11.420Z,99.90
2023-05-21T23:05:38.649Z,99.90
2023-05-21T23:08:06.120Z,99.90
2023-05-21T23:10:35.600Z,99.90
2023-05-21T23:13:03.157Z,99.90
2023-05-21T23:15:30.585Z,99.90
2023-05-21T23:17:58.096Z,99.90
2023-05-21T23:20:25.222Z,99.90
2023-05-21T23:22:52.689Z,99.90
2023-05-21T23:25:19.703Z,99.90
2023-05-21T23:27:47.121Z,99.90
2023-05-21T23:30:14.368Z,99.90
2023-05-21T23:32:41.772Z,99.90
2023-05-21T23:35:09.845Z,99.90
2023-05-21T23:37:37.298Z,99.90
2023-05-21T23:40:05.307Z,99.90
2023-05-21T23:42:32.664Z,99.90
2023-05-21T23:44:59.754Z,99.90
2023-05-21T23:47:27.118Z,99.90
2023-05-21T23:49:54.206Z,99.90
2023-05-21T23:52:23.490Z,99.90
2023-05-21T23:54:50.549Z,99.90
2023-05-21T23:57:18.145Z,99.90
2023-05-21T23:59:45.238Z,99.90
